createdAt,value
2018-08-09T00:01:29.991Z,19.21
2018-08-09T00:03:59.076Z,19.18
2018-08-09T00:06:28.234Z,19.14
2018-08-09T00:08:57.405Z,19.10
2018-08-09T00:11:26.786Z,19.07
2018-08-09T00:13:58.129Z,19.02
2018-08-09T00:16:27.373Z,19.01
2018-08-09T00:18:56.461Z,19.03
2018-08-09T00:21:25.293Z,18.99
2018-08-09T00:23:54.385Z,18.91
2018-08-09T00:26:23.487Z,18.79
2018-08-09T00:28:52.655Z,18.70
2018-08-09T00:31:21.476Z,18.67
2018-08-09T00:33:51.940Z,18.65
2018-08-09T00:36:20.906Z,18.66
2018-08-09T00:38:53.085Z,18.67
2018-08-09T00:41:22.240Z,18.67
2018-08-09T00:43:51.129Z,18.68
2018-08-09T00:46:19.920Z,18.67
2018-08-09T00:48:48.687Z,18.69
2018-08-09T00:51:17.662Z,18.69
2018-08-09T00:53:46.593Z,18.68
2018-08-09T00:56:15.413Z,18.69
2018-08-09T00:58:44.300Z,18.68
2018-08-09T01:01:13.613Z,18.69
2018-08-09T01:03:42.415Z,18.68
2018-08-09T01:06:11.488Z,18.67
2018-08-09T01:08:44.386Z,18.60
2018-08-09T01:11:13.183Z,18.55
2018-08-09T01:13:41.980Z,18.47
2018-08-09T01:16:10.832Z,18.41
2018-08-09T01:18:39.662Z,18.38
2018-08-09T01:21:08.537Z,18.36
2018-08-09T01:23:37.429Z,18.33
2018-08-09T01:26:06.206Z,18.28
2018-08-09T01:28:35.034Z,18.17
2018-08-09T01:31:03.866Z,18.01
2018-08-09T01:33:33.133Z,17.89
2018-08-09T01:36:02.134Z,17.83
2018-08-09T01:38:31.028Z,17.76
2018-08-09T01:40:59.883Z,17.69
2018-08-09T01:43:39.698Z,17.63
2018-08-09T01:46:08.833Z,17.56
2018-08-09T01:48:37.617Z,17.49
2018-08-09T01:51:06.544Z,17.40
2018-08-09T01:53:35.346Z,17.26
2018-08-09T01:56:04.190Z,17.02
2018-08-09T01:58:32.949Z,16.79
2018-08-09T02:01:01.778Z,16.53
2018-08-09T02:03:30.555Z,16.31
2018-08-09T02:05:59.645Z,16.20
2018-08-09T02:08:28.353Z,16.21
2018-08-09T02:10:57.206Z,16.32
2018-08-09T02:13:26.000Z,16.43
2018-08-09T02:15:54.856Z,16.47
2018-08-09T02:18:23.681Z,16.40
2018-08-09T02:20:52.936Z,16.34
2018-08-09T02:23:21.605Z,16.33
2018-08-09T02:25:50.660Z,16.27
2018-08-09T02:28:19.514Z,16.18
2018-08-09T02:30:48.307Z,16.16
2018-08-09T02:33:17.226Z,16.15
2018-08-09T02:35:46.169Z,16.08
2018-08-09T02:38:15.082Z,15.99
2018-08-09T02:40:43.912Z,15.89
2018-08-09T02:43:12.917Z,15.74
2018-08-09T02:45:41.762Z,15.63
2018-08-09T02:48:10.510Z,15.54
2018-08-09T02:50:39.352Z,15.39
2018-08-09T02:53:09.394Z,15.31
2018-08-09T02:55:39.491Z,15.22
2018-08-09T02:58:08.759Z,15.16
2018-08-09T03:00:37.532Z,15.11
2018-08-09T03:03:06.306Z,15.03
2018-08-09T03:05:35.507Z,14.98
2018-08-09T03:08:04.469Z,14.94
2018-08-09T03:10:37.023Z,14.89
2018-08-09T03:13:05.734Z,14.97
2018-08-09T03:15:34.609Z,15.10
2018-08-09T03:18:03.418Z,15.28
2018-08-09T03:20:32.409Z,15.55
2018-08-09T03:23:01.213Z,15.76
2018-08-09T03:25:30.197Z,15.78
2018-08-09T03:27:58.993Z,15.62
2018-08-09T03:30:31.813Z,15.45
2018-08-09T03:33:01.062Z,15.30
2018-08-09T03:35:30.202Z,15.17
2018-08-09T03:37:59.306Z,15.02
2018-08-09T03:40:29.049Z,14.87
2018-08-09T03:42:58.173Z,14.79
2018-08-09T03:45:27.254Z,14.76
2018-08-09T03:47:56.214Z,14.69
2018-08-09T03:50:25.031Z,14.55
2018-08-09T03:52:53.861Z,14.47
2018-08-09T03:55:22.612Z,14.39
2018-08-09T03:57:51.373Z,14.38
2018-08-09T04:00:20.178Z,14.40
2018-08-09T04:02:49.382Z,14.49
2018-08-09T04:05:18.181Z,14.61
2018-08-09T04:07:47.037Z,14.60
2018-08-09T04:10:16.076Z,14.65
2018-08-09T04:12:45.339Z,14.76
2018-08-09T04:15:14.104Z,14.99
2018-08-09T04:17:43.349Z,15.10
2018-08-09T04:20:12.296Z,15.14
2018-08-09T04:22:41.279Z,15.16
2018-08-09T04:25:10.406Z,15.16
2018-08-09T04:27:39.297Z,15.17
2018-08-09T04:30:08.249Z,15.22
2018-08-09T04:32:37.181Z,15.36
2018-08-09T04:35:06.139Z,15.47
2018-08-09T04:37:35.057Z,15.59
2018-08-09T04:40:03.890Z,15.70
2018-08-09T04:42:32.685Z,15.81
2018-08-09T04:45:01.894Z,15.87
2018-08-09T04:47:30.710Z,15.92
2018-08-09T04:49:59.617Z,15.98
2018-08-09T04:52:28.510Z,16.04
2018-08-09T04:54:57.357Z,16.16
2018-08-09T04:57:26.167Z,16.38
2018-08-09T04:59:55.092Z,16.63
2018-08-09T05:02:24.151Z,16.87
2018-08-09T05:04:53.094Z,17.11
2018-08-09T05:07:22.072Z,17.34
2018-08-09T05:09:51.600Z,17.53
2018-08-09T05:12:21.452Z,17.72
2018-08-09T05:14:50.197Z,17.90
2018-08-09T05:17:19.018Z,18.09
2018-08-09T05:19:48.541Z,18.27
2018-08-09T05:22:17.347Z,18.46
2018-08-09T05:24:46.231Z,18.60
2018-08-09T05:27:15.193Z,18.78
2018-08-09T05:29:43.971Z,18.94
2018-08-09T05:32:13.154Z,19.07
2018-08-09T05:34:41.951Z,19.21
2018-08-09T05:37:10.797Z,19.33
2018-08-09T05:39:39.923Z,19.46
2018-08-09T05:42:08.979Z,19.57
2018-08-09T05:44:37.736Z,19.61
2018-08-09T05:47:06.888Z,19.69
2018-08-09T05:49:35.820Z,19.76
2018-08-09T05:52:04.643Z,19.84
2018-08-09T05:54:33.568Z,19.92
2018-08-09T05:57:02.374Z,19.99
2018-08-09T05:59:31.141Z,19.99
2018-08-09T06:02:00.030Z,20.02
2018-08-09T06:04:28.849Z,20.03
2018-08-09T06:06:57.573Z,20.11
2018-08-09T06:09:26.428Z,20.22
2018-08-09T06:11:55.285Z,20.31
2018-08-09T06:14:24.205Z,20.41
2018-08-09T06:16:53.071Z,20.47
2018-08-09T06:19:21.881Z,20.51
2018-08-09T06:21:50.703Z,20.51
2018-08-09T06:24:19.576Z,20.46
2018-08-09T06:26:48.435Z,20.45
2018-08-09T06:29:17.189Z,20.45
2018-08-09T06:31:45.943Z,20.47
2018-08-09T06:34:14.830Z,20.57
2018-08-09T06:36:43.713Z,20.70
2018-08-09T06:39:12.581Z,20.82
2018-08-09T06:41:41.357Z,20.95
2018-08-09T06:44:10.301Z,21.20
2018-08-09T06:46:39.230Z,21.38
2018-08-09T06:49:08.174Z,21.56
2018-08-09T06:51:36.977Z,21.67
2018-08-09T06:54:05.866Z,21.80
2018-08-09T06:56:34.650Z,21.78
2018-08-09T06:59:03.705Z,21.73
2018-08-09T07:01:32.587Z,21.72
2018-08-09T07:04:01.399Z,21.66
2018-08-09T07:06:30.186Z,21.54
2018-08-09T07:08:59.074Z,21.47
2018-08-09T07:11:27.811Z,21.45
2018-08-09T07:13:56.582Z,21.50
2018-08-09T07:16:25.392Z,21.67
2018-08-09T07:18:54.235Z,21.97
2018-08-09T07:21:22.978Z,22.28
2018-08-09T07:23:51.825Z,22.42
2018-08-09T07:26:20.734Z,22.41
2018-08-09T07:28:49.666Z,22.35
2018-08-09T07:31:18.423Z,22.27
2018-08-09T07:33:47.209Z,22.23
2018-08-09T07:36:16.017Z,22.33
2018-08-09T07:38:44.793Z,22.55
2018-08-09T07:41:13.556Z,22.79
2018-08-09T07:43:42.398Z,22.99
2018-08-09T07:46:11.256Z,23.18
2018-08-09T07:48:40.247Z,23.35
2018-08-09T07:51:09.139Z,23.54
2018-08-09T07:53:38.118Z,24.11
2018-08-09T07:56:06.878Z,24.68
2018-08-09T07:58:35.714Z,25.15
2018-08-09T08:01:04.472Z,25.63
2018-08-09T08:03:33.295Z,25.95
2018-08-09T08:06:02.108Z,25.88
2018-08-09T08:08:31.017Z,25.59
2018-08-09T08:10:59.938Z,25.38
2018-08-09T08:13:28.650Z,25.31
2018-08-09T08:15:57.531Z,25.28
2018-08-09T08:18:26.316Z,25.12
2018-08-09T08:20:55.113Z,24.83
2018-08-09T08:23:24.977Z,24.62
2018-08-09T08:25:53.832Z,24.36
2018-08-09T08:28:22.607Z,24.71
2018-08-09T08:30:51.348Z,24.71
2018-08-09T08:33:21.242Z,24.92
2018-08-09T08:35:50.169Z,25.20
2018-08-09T08:38:19.430Z,25.56
2018-08-09T08:40:48.758Z,26.00
2018-08-09T08:43:18.894Z,26.36
2018-08-09T08:45:47.961Z,26.74
2018-08-09T08:48:16.731Z,27.20
2018-08-09T08:50:45.732Z,27.62
2018-08-09T08:53:15.675Z,27.93
2018-08-09T08:55:44.433Z,28.02
2018-08-09T08:58:15.572Z,28.03
2018-08-09T09:00:45.242Z,28.15
2018-08-09T09:03:14.505Z,28.31
2018-08-09T09:05:44.890Z,28.30
2018-08-09T09:08:13.904Z,28.33
2018-08-09T09:10:43.301Z,28.61
2018-08-09T09:13:19.306Z,29.22
2018-08-09T09:15:48.154Z,29.80
2018-08-09T09:18:19.246Z,30.24
2018-08-09T09:20:48.525Z,30.14
2018-08-09T09:23:26.697Z,29.68
2018-08-09T09:25:57.388Z,29.16
2018-08-09T09:28:33.226Z,28.82
2018-08-09T09:31:02.832Z,28.73
2018-08-09T09:33:33.689Z,28.83
2018-08-09T09:36:02.789Z,28.90
2018-08-09T09:38:31.563Z,29.09
2018-08-09T09:41:00.526Z,29.46
2018-08-09T09:43:30.857Z,29.94
2018-08-09T09:45:59.817Z,30.37
2018-08-09T09:48:28.937Z,30.73
2018-08-09T09:51:00.373Z,30.99
2018-08-09T09:53:46.605Z,31.00
2018-08-09T09:56:15.492Z,30.55
2018-08-09T09:58:44.430Z,30.39
2018-08-09T10:01:19.177Z,30.43
2018-08-09T10:03:56.379Z,30.55
2018-08-09T10:06:25.242Z,30.45
2018-08-09T10:08:55.112Z,30.67
2018-08-09T10:11:24.009Z,31.05
2018-08-09T10:13:58.493Z,31.16
2018-08-09T10:16:27.609Z,31.32
2018-08-09T10:18:57.329Z,31.39
2018-08-09T10:21:26.118Z,31.47
2018-08-09T10:23:54.950Z,31.53
2018-08-09T10:26:23.768Z,31.62
2018-08-09T10:28:52.623Z,31.46
2018-08-09T10:31:21.632Z,31.32
2018-08-09T10:33:50.491Z,31.09
2018-08-09T10:36:19.268Z,30.59
2018-08-09T10:38:48.040Z,30.42
2018-08-09T10:41:16.926Z,30.11
2018-08-09T10:43:50.897Z,29.72
2018-08-09T10:46:19.720Z,29.52
2018-08-09T10:48:48.561Z,29.62
2018-08-09T10:51:17.340Z,29.42
2018-08-09T10:53:49.282Z,29.27
2018-08-09T10:56:18.176Z,29.41
2018-08-09T10:58:46.986Z,29.79
2018-08-09T11:01:16.220Z,30.34
2018-08-09T11:03:47.269Z,30.91
2018-08-09T11:06:16.520Z,31.26
2018-08-09T11:08:45.347Z,31.53
2018-08-09T11:11:15.489Z,31.86
2018-08-09T11:13:45.683Z,32.32
2018-08-09T11:16:15.505Z,32.78
2018-08-09T11:18:45.280Z,33.29
2018-08-09T11:21:14.530Z,33.89
2018-08-09T11:23:43.454Z,34.12
2018-08-09T11:26:20.325Z,34.21
2018-08-09T11:28:49.093Z,34.25
2018-08-09T11:31:17.948Z,34.31
2018-08-09T11:33:46.721Z,34.54
2018-08-09T11:36:15.521Z,34.26
2018-08-09T11:38:44.277Z,33.94
2018-08-09T11:41:13.562Z,33.44
2018-08-09T11:43:42.294Z,32.88
2018-08-09T11:46:11.446Z,32.63
2018-08-09T11:48:40.291Z,32.52
2018-08-09T11:51:12.187Z,32.36
2018-08-09T11:53:41.037Z,32.33
2018-08-09T11:56:19.095Z,32.37
2018-08-09T11:58:47.835Z,32.45
2018-08-09T12:01:16.608Z,32.51
2018-08-09T12:03:45.401Z,32.80
2018-08-09T12:06:16.257Z,33.07
2018-08-09T12:08:45.049Z,33.35
2018-08-09T12:11:14.861Z,33.51
2018-08-09T12:13:44.704Z,33.71
2018-08-09T12:16:13.955Z,33.93
2018-08-09T12:18:43.052Z,34.13
2018-08-09T12:21:11.943Z,34.46
2018-08-09T12:23:40.794Z,34.33
2018-08-09T12:26:20.274Z,34.44
2018-08-09T12:28:49.123Z,34.64
2018-08-09T12:31:22.773Z,34.73
2018-08-09T12:33:51.953Z,34.90
2018-08-09T12:36:28.706Z,35.32
2018-08-09T12:38:57.714Z,35.89
2018-08-09T12:41:26.927Z,36.26
2018-08-09T12:43:55.929Z,36.54
2018-08-09T12:46:33.607Z,36.66
2018-08-09T12:49:02.507Z,36.54
2018-08-09T12:51:31.427Z,36.39
2018-08-09T12:54:00.224Z,36.02
2018-08-09T12:56:29.845Z,35.72
2018-08-09T12:58:59.059Z,35.63
2018-08-09T13:01:27.910Z,35.50
2018-08-09T13:03:56.650Z,35.38
2018-08-09T13:06:42.841Z,35.26
2018-08-09T13:09:12.447Z,34.92
2018-08-09T13:11:41.919Z,34.52
2018-08-09T13:14:10.757Z,34.24
2018-08-09T13:16:39.632Z,33.91
2018-08-09T13:19:08.760Z,33.72
2018-08-09T13:21:40.941Z,33.56
2018-08-09T13:24:09.673Z,33.27
2018-08-09T13:26:38.821Z,32.82
2018-08-09T13:29:07.632Z,32.37
2018-08-09T13:31:36.478Z,31.91
2018-08-09T13:34:05.438Z,31.50
2018-08-09T13:36:35.302Z,31.16
2018-08-09T13:39:05.190Z,30.85
2018-08-09T13:41:33.917Z,30.68
2018-08-09T13:44:02.722Z,30.47
2018-08-09T13:46:31.519Z,30.38
2018-08-09T13:49:00.273Z,30.62
2018-08-09T13:51:29.090Z,31.00
2018-08-09T13:53:57.861Z,31.25
2018-08-09T13:56:47.096Z,31.24
2018-08-09T13:59:16.113Z,30.97
2018-08-09T14:01:44.962Z,30.68
2018-08-09T14:04:13.871Z,30.29
2018-08-09T14:06:42.638Z,29.92
2018-08-09T14:09:13.778Z,29.55
2018-08-09T14:11:43.319Z,29.17
2018-08-09T14:14:12.708Z,28.78
2018-08-09T14:16:45.766Z,28.45
2018-08-09T14:19:14.689Z,28.00
2018-08-09T14:21:43.445Z,27.26
2018-08-09T14:24:12.247Z,25.77
2018-08-09T14:26:43.117Z,24.55
2018-08-09T14:29:11.925Z,23.99
2018-08-09T14:31:40.710Z,23.30
2018-08-09T14:34:09.455Z,23.17
2018-08-09T14:36:41.829Z,23.16
2018-08-09T14:39:11.753Z,23.08
2018-08-09T14:41:40.537Z,23.06
2018-08-09T14:44:09.704Z,23.03
2018-08-09T14:46:45.834Z,23.02
2018-08-09T14:49:14.594Z,23.02
2018-08-09T14:51:43.359Z,23.08
2018-08-09T14:54:12.202Z,23.09
2018-08-09T14:56:43.130Z,22.97
2018-08-09T14:59:12.141Z,22.82
2018-08-09T15:01:40.989Z,22.56
2018-08-09T15:04:09.961Z,22.21
2018-08-09T15:06:38.746Z,21.94
2018-08-09T15:09:09.934Z,21.76
2018-08-09T15:11:38.721Z,21.64
2018-08-09T15:14:08.853Z,21.53
2018-08-09T15:16:37.659Z,21.43
2018-08-09T15:19:06.545Z,21.41
2018-08-09T15:21:35.489Z,21.53
2018-08-09T15:24:04.445Z,21.65
2018-08-09T15:26:33.267Z,21.73
2018-08-09T15:29:02.103Z,21.84
2018-08-09T15:31:30.898Z,22.03
2018-08-09T15:33:59.849Z,22.13
2018-08-09T15:36:28.734Z,22.20
2018-08-09T15:38:57.526Z,22.27
2018-08-09T15:41:26.316Z,22.26
2018-08-09T15:43:55.212Z,22.33
2018-08-09T15:46:24.028Z,22.46
2018-08-09T15:48:53.330Z,22.52
2018-08-09T15:51:22.064Z,22.63
2018-08-09T15:53:50.876Z,22.75
2018-08-09T15:56:19.658Z,23.09
2018-08-09T15:58:48.474Z,23.41
2018-08-09T16:01:17.206Z,24.23
2018-08-09T16:03:46.169Z,26.32
2018-08-09T16:06:14.969Z,28.60
2018-08-09T16:08:43.765Z,30.34
2018-08-09T16:11:12.589Z,31.65
2018-08-09T16:13:41.501Z,32.59
2018-08-09T16:16:10.428Z,32.72
2018-08-09T16:18:39.144Z,32.75
2018-08-09T16:21:08.017Z,32.35
2018-08-09T16:23:36.830Z,31.83
2018-08-09T16:26:05.643Z,30.96
2018-08-09T16:28:34.498Z,30.26
2018-08-09T16:31:03.453Z,29.74
2018-08-09T16:33:32.303Z,30.23
2018-08-09T16:36:01.115Z,31.12
2018-08-09T16:38:29.896Z,32.51
2018-08-09T16:40:58.829Z,33.17
2018-08-09T16:43:27.749Z,33.42
2018-08-09T16:45:56.781Z,33.52
2018-08-09T16:48:25.661Z,33.83
2018-08-09T16:50:54.503Z,34.16
2018-08-09T16:53:23.281Z,33.83
2018-08-09T16:55:52.119Z,33.16
2018-08-09T16:58:20.860Z,32.87
2018-08-09T17:00:49.740Z,32.22
2018-08-09T17:03:18.551Z,31.73
2018-08-09T17:05:47.481Z,31.51
2018-08-09T17:08:19.806Z,31.17
2018-08-09T17:10:48.768Z,31.38
2018-08-09T17:13:18.667Z,31.82
2018-08-09T17:15:47.590Z,31.55
2018-08-09T17:18:16.498Z,30.54
2018-08-09T17:20:45.376Z,30.14
2018-08-09T17:23:14.262Z,30.26
2018-08-09T17:25:43.060Z,30.65
2018-08-09T17:28:11.975Z,30.94
2018-08-09T17:30:40.885Z,30.83
2018-08-09T17:33:09.811Z,30.79
2018-08-09T17:35:38.643Z,30.80
2018-08-09T17:38:08.161Z,30.51
2018-08-09T17:40:37.284Z,29.86
2018-08-09T17:43:06.175Z,29.16
2018-08-09T17:45:35.806Z,28.87
2018-08-09T17:48:08.494Z,28.69
2018-08-09T17:50:37.418Z,28.60
2018-08-09T17:53:07.534Z,28.36
2018-08-09T17:55:36.422Z,28.06
2018-08-09T17:58:05.470Z,27.70
2018-08-09T18:00:35.561Z,27.36
2018-08-09T18:03:04.514Z,27.02
2018-08-09T18:05:33.519Z,26.80
2018-08-09T18:08:02.438Z,26.65
2018-08-09T18:10:33.956Z,26.41
2018-08-09T18:13:02.788Z,26.09
2018-08-09T18:15:32.228Z,25.88
2018-08-09T18:18:02.006Z,25.51
2018-08-09T18:20:33.446Z,25.22
2018-08-09T18:23:02.342Z,24.91
2018-08-09T18:25:31.400Z,24.62
2018-08-09T18:28:00.337Z,24.38
2018-08-09T18:30:29.302Z,24.16
2018-08-09T18:32:58.328Z,24.01
2018-08-09T18:35:27.198Z,23.95
2018-08-09T18:37:56.170Z,23.92
2018-08-09T18:40:26.858Z,23.88
2018-08-09T18:42:55.763Z,23.85
2018-08-09T18:45:24.761Z,23.85
2018-08-09T18:47:53.761Z,23.87
2018-08-09T18:50:29.868Z,23.89
2018-08-09T18:52:58.841Z,23.93
2018-08-09T18:55:27.755Z,23.69
2018-08-09T18:57:56.630Z,23.28
2018-08-09T19:00:27.323Z,22.87
2018-08-09T19:02:56.335Z,22.46
2018-08-09T19:05:25.427Z,22.19
2018-08-09T19:07:54.384Z,21.93
2018-08-09T19:10:24.913Z,21.73
2018-08-09T19:12:53.799Z,21.60
2018-08-09T19:15:22.585Z,21.40
2018-08-09T19:20:28.333Z,21.29
2018-08-09T19:22:57.721Z,21.18
2018-08-09T19:25:26.573Z,21.15
2018-08-09T19:27:55.473Z,21.10
2018-08-09T19:30:26.017Z,21.08
2018-08-09T19:32:55.003Z,20.95
2018-08-09T19:35:24.141Z,20.96
2018-08-09T19:37:52.961Z,20.96
2018-08-09T19:40:25.549Z,21.04
2018-08-09T19:42:54.497Z,21.08
2018-08-09T19:45:23.337Z,21.05
2018-08-09T19:47:52.160Z,21.04
2018-08-09T19:50:22.369Z,20.83
2018-08-09T19:52:51.249Z,20.73
2018-08-09T19:55:21.727Z,20.74
2018-08-09T19:57:51.200Z,20.71
2018-08-09T20:00:21.665Z,20.64
2018-08-09T20:02:50.827Z,20.58
2018-08-09T20:05:19.681Z,20.55
2018-08-09T20:07:48.555Z,20.52
2018-08-09T20:10:17.500Z,20.48
2018-08-09T20:12:47.181Z,20.47
2018-08-09T20:15:18.268Z,20.47
2018-08-09T20:17:47.199Z,20.36
2018-08-09T20:20:17.476Z,20.27
2018-08-09T20:22:46.250Z,20.31
2018-08-09T20:25:15.591Z,20.38
2018-08-09T20:27:45.229Z,20.55
2018-08-09T20:30:16.009Z,20.61
2018-08-09T20:32:45.721Z,20.58
2018-08-09T20:35:18.853Z,20.45
2018-08-09T20:37:48.291Z,20.46
2018-08-09T20:40:17.925Z,20.49
2018-08-09T20:42:48.006Z,20.56
2018-08-09T20:45:18.395Z,20.60
2018-08-09T20:47:47.191Z,20.61
2018-08-09T20:50:18.342Z,20.62
2018-08-09T20:52:47.867Z,20.66
2018-08-09T20:55:16.774Z,20.58
2018-08-09T20:57:46.416Z,20.54
2018-08-09T21:00:18.338Z,20.43
2018-08-09T21:02:48.670Z,20.28
2018-08-09T21:05:23.475Z,20.30
2018-08-09T21:07:53.527Z,20.23
2018-08-09T21:10:22.743Z,20.27
2018-08-09T21:12:51.559Z,20.40
2018-08-09T21:15:20.987Z,20.42
2018-08-09T21:17:49.852Z,20.37
2018-08-09T21:20:18.745Z,20.22
2018-08-09T21:22:48.500Z,20.14
2018-08-09T21:25:17.520Z,20.04
2018-08-09T21:27:47.005Z,19.99
2018-08-09T21:30:18.246Z,19.95
2018-08-09T21:32:47.560Z,19.90
2018-08-09T21:35:16.358Z,19.88
2018-08-09T21:37:45.494Z,19.97
2018-08-09T21:40:15.209Z,20.02
2018-08-09T21:42:44.125Z,20.10
2018-08-09T21:45:16.351Z,20.08
2018-08-09T21:47:45.111Z,20.12
2018-08-09T21:50:16.200Z,20.23
2018-08-09T21:52:45.078Z,20.21
2018-08-09T21:55:14.604Z,20.20
2018-08-09T21:57:44.557Z,20.23
2018-08-09T22:00:22.099Z,20.20
2018-08-09T22:02:51.160Z,20.17
2018-08-09T22:06:25.000Z,20.14
2018-08-09T22:08:58.982Z,19.96
2018-08-09T22:11:32.961Z,19.96
2018-08-09T22:15:09.756Z,19.75
2018-08-09T22:17:43.739Z,19.56
2018-08-09T22:20:17.748Z,19.58
2018-08-09T22:22:46.674Z,19.49
2018-08-09T22:25:15.485Z,19.43
2018-08-09T22:27:44.332Z,19.39
2018-08-09T22:30:15.629Z,19.35
2018-08-09T22:32:44.460Z,19.21
2018-08-09T22:35:13.217Z,19.16
2018-08-09T22:37:41.939Z,19.25
2018-08-09T22:40:10.877Z,19.10
2018-08-09T22:42:39.697Z,19.08
2018-08-09T22:45:08.617Z,18.98
2018-08-09T22:47:37.360Z,18.92
2018-08-09T22:50:06.157Z,18.86
2018-08-09T22:52:34.921Z,18.95
2018-08-09T22:55:03.856Z,18.91
2018-08-09T22:57:32.557Z,18.86
2018-08-09T23:00:01.356Z,18.69
2018-08-09T23:02:30.173Z,18.52
2018-08-09T23:04:58.866Z,18.52
2018-08-09T23:07:27.785Z,18.51
2018-08-09T23:09:56.541Z,18.52
2018-08-09T23:12:25.359Z,18.25
2018-08-09T23:14:54.064Z,18.14
2018-08-09T23:17:22.840Z,18.20
2018-08-09T23:19:51.514Z,18.28
2018-08-09T23:22:20.337Z,18.32
2018-08-09T23:24:49.047Z,18.45
2018-08-09T23:27:17.729Z,18.44
2018-08-09T23:29:46.598Z,18.36
2018-08-09T23:32:15.440Z,18.35
2018-08-09T23:34:44.294Z,18.23
2018-08-09T23:37:13.142Z,18.27
2018-08-09T23:39:41.917Z,18.22
2018-08-09T23:42:10.707Z,18.11
2018-08-09T23:44:39.369Z,17.90
2018-08-09T23:47:08.233Z,17.61
2018-08-09T23:49:36.972Z,17.38
2018-08-09T23:52:05.977Z,17.24
2018-08-09T23:54:34.995Z,16.96
2018-08-09T23:57:03.707Z,16.84
2018-08-09T23:59:32.513Z,16.75
